createdAt,value
2023-01-20T04:43:44.697Z,30.10
2023-01-20T04:46:12.752Z,26.40
2023-01-20T04:48:39.904Z,30.60
2023-01-20T04:51:07.341Z,29.00
2023-01-20T04:53:34.706Z,28.80
2023-01-20T04:56:01.682Z,21.80
2023-01-20T04:58:28.716Z,33.30
2023-01-20T05:00:55.779Z,32.00
2023-01-20T05:03:22.647Z,37.60
2023-01-20T05:05:54.299Z,43.60
2023-01-20T05:08:21.316Z,38.40
2023-01-20T05:10:48.265Z,48.70
2023-01-20T05:13:15.102Z,38.70
2023-01-20T05:15:42.537Z,39.10
2023-01-20T05:18:09.357Z,47.20
2023-01-20T05:20:36.251Z,40.00
2023-01-20T05:23:03.653Z,34.30
2023-01-20T05:25:30.541Z,43.10
2023-01-20T05:27:58.796Z,40.30
2023-01-20T05:30:25.911Z,46.60
2023-01-20T05:32:52.827Z,26.10
2023-01-20T05:35:19.781Z,26.40
2023-01-20T05:37:46.724Z,40.90
2023-01-20T05:40:13.775Z,29.40
2023-01-20T05:42:40.721Z,22.50
2023-01-20T05:45:09.457Z,20.80
2023-01-20T05:47:36.464Z,25.50
2023-01-20T05:50:04.632Z,28.80
2023-01-20T05:52:31.690Z,29.40
2023-01-20T05:54:58.630Z,32.80
2023-01-20T05:57:25.988Z,37.30
2023-01-20T05:59:53.033Z,25.10
2023-01-20T06:02:20.219Z,29.90
2023-01-20T06:04:47.328Z,26.10
2023-01-20T06:07:14.795Z,35.00
2023-01-20T06:09:41.842Z,36.10
2023-01-20T06:12:08.797Z,29.60
2023-01-20T06:14:35.745Z,30.20
2023-01-20T06:17:02.689Z,34.00
2023-01-20T06:19:29.639Z,34.50
2023-01-20T06:21:56.592Z,32.50
2023-01-20T06:24:23.528Z,29.60
2023-01-20T06:26:51.346Z,30.60
2023-01-20T06:29:18.955Z,30.40
2023-01-20T06:31:46.972Z,30.30
2023-01-20T06:34:13.954Z,30.60
2023-01-20T06:36:40.778Z,38.80
2023-01-20T06:39:07.659Z,25.20
2023-01-20T06:41:34.525Z,31.20
2023-01-20T06:44:01.461Z,27.60
2023-01-20T06:46:28.415Z,25.20
2023-01-20T06:49:00.914Z,24.30
2023-01-20T06:51:28.894Z,35.10
2023-01-20T06:53:56.001Z,29.20
2023-01-20T06:56:23.058Z,26.20
2023-01-20T06:58:50.224Z,28.20
2023-01-20T07:01:25.375Z,25.10
2023-01-20T07:03:52.425Z,22.20
2023-01-20T07:06:25.899Z,22.10
2023-01-20T07:08:52.941Z,26.30
2023-01-20T07:11:19.893Z,27.60
2023-01-20T07:13:46.837Z,25.70
2023-01-20T07:16:15.862Z,30.30
2023-01-20T07:18:43.950Z,24.90
2023-01-20T07:21:11.611Z,19.70
2023-01-20T07:23:38.515Z,25.60
2023-01-20T07:26:07.317Z,22.50
2023-01-20T07:28:34.798Z,22.00
2023-01-20T07:31:15.610Z,23.60
2023-01-20T07:33:42.686Z,55.20
2023-01-20T07:36:09.822Z,33.70
2023-01-20T07:38:36.727Z,28.30
2023-01-20T07:41:05.326Z,31.70
2023-01-20T07:43:32.241Z,23.20
2023-01-20T07:46:03.178Z,27.30
2023-01-20T07:48:31.336Z,32.80
2023-01-20T07:51:02.951Z,28.60
2023-01-20T07:53:30.272Z,27.60
2023-01-20T07:56:00.113Z,28.80
2023-01-20T07:58:27.004Z,42.20
2023-01-20T08:00:54.533Z,31.70
2023-01-20T08:03:21.618Z,22.70
2023-01-20T08:05:48.700Z,20.10
2023-01-20T08:08:15.533Z,25.80
2023-01-20T08:10:42.389Z,28.30
2023-01-20T08:13:12.409Z,28.00
2023-01-20T08:15:39.418Z,21.10
2023-01-20T08:18:06.366Z,25.20
2023-01-20T08:20:33.310Z,30.40
2023-01-20T08:23:00.139Z,23.80
2023-01-20T08:25:26.970Z,26.10
2023-01-20T08:27:53.842Z,33.70
2023-01-20T08:30:20.689Z,23.40
2023-01-20T08:32:47.639Z,25.90
2023-01-20T08:35:14.915Z,21.60
2023-01-20T08:37:42.936Z,35.50
2023-01-20T08:40:10.704Z,22.70
2023-01-20T08:42:37.701Z,28.90
2023-01-20T08:45:05.743Z,31.70
2023-01-20T08:47:36.484Z,31.60
2023-01-20T08:50:04.966Z,32.50
2023-01-20T08:52:32.033Z,26.30
2023-01-20T10:28:29.866Z,20.90
2023-01-20T10:30:58.555Z,27.50
2023-01-20T10:33:30.707Z,30.20
2023-01-20T10:36:00.833Z,24.20
2023-01-20T10:38:34.913Z,20.20
2023-01-20T10:41:19.782Z,20.00
2023-01-20T10:43:47.759Z,25.30
2023-01-20T10:46:25.928Z,28.20
2023-01-20T10:49:32.298Z,26.80
2023-01-20T10:52:00.108Z,22.70
2023-01-20T10:55:02.739Z,23.60
2023-01-20T10:57:29.685Z,19.60
2023-01-20T11:00:28.166Z,35.10
2023-01-20T11:02:58.983Z,21.70
2023-01-20T11:05:27.741Z,17.20
2023-01-20T11:07:54.875Z,21.70
2023-01-20T11:10:29.324Z,16.20
2023-01-20T11:13:00.698Z,24.90
2023-01-20T11:15:35.981Z,24.10
2023-01-20T11:18:15.381Z,29.70
2023-01-20T11:20:50.649Z,18.20
2023-01-20T11:23:37.109Z,18.40
2023-01-20T11:26:11.991Z,23.30
2023-01-20T11:29:00.229Z,24.50
2023-01-20T11:31:54.166Z,20.50
2023-01-20T11:34:26.587Z,20.60
2023-01-20T11:37:05.780Z,19.00
2023-01-20T11:39:36.811Z,25.90
2023-01-20T11:42:27.606Z,23.60
2023-01-20T11:45:21.512Z,21.10
2023-01-20T11:48:01.626Z,19.70
2023-01-20T11:50:30.292Z,26.00
2023-01-20T11:53:21.631Z,24.00
2023-01-20T11:55:50.795Z,32.40
2023-01-20T11:58:23.389Z,17.70
2023-01-20T12:00:52.234Z,32.00
2023-01-20T12:03:33.017Z,28.90
2023-01-20T12:06:26.011Z,21.60
2023-01-20T12:09:03.890Z,25.30
2023-01-20T12:11:32.814Z,24.40
2023-01-20T12:14:21.386Z,20.60
2023-01-20T12:17:00.509Z,25.90
2023-01-20T12:19:33.892Z,23.00
2023-01-20T12:22:02.514Z,22.00
2023-01-20T12:24:52.970Z,18.00
2023-01-20T12:27:23.529Z,25.20
2023-01-20T12:29:51.418Z,25.90
2023-01-20T12:32:18.321Z,25.30
2023-01-20T12:34:45.267Z,22.00
2023-01-20T12:37:35.801Z,24.30
2023-01-20T12:40:08.523Z,24.80
2023-01-20T12:43:13.013Z,19.40
2023-01-20T12:45:45.984Z,23.20
2023-01-20T12:48:42.920Z,18.30
2023-01-20T12:51:55.236Z,17.30
2023-01-20T12:54:48.410Z,23.40
2023-01-20T12:57:16.020Z,25.30
2023-01-20T12:59:49.145Z,23.50
2023-01-20T13:02:15.997Z,21.90
2023-01-20T13:05:11.939Z,21.70
2023-01-20T13:08:10.260Z,22.40
2023-01-20T13:11:05.281Z,21.90
2023-01-20T13:13:42.411Z,21.40
2023-01-20T13:16:29.689Z,20.70
2023-01-20T13:19:03.729Z,16.40
2023-01-20T13:21:31.899Z,19.50
2023-01-20T13:24:02.848Z,15.90
2023-01-20T13:26:30.161Z,14.10
2023-01-20T13:28:57.472Z,25.60
2023-01-20T13:31:36.854Z,17.30
2023-01-20T13:34:22.479Z,26.10
2023-01-20T13:37:09.818Z,16.60
2023-01-20T13:39:40.901Z,14.30
2023-01-20T13:42:26.843Z,19.60
2023-01-20T13:45:12.373Z,29.80
2023-01-20T13:48:02.233Z,16.00
2023-01-20T13:50:34.199Z,19.50
2023-01-20T13:53:07.667Z,25.50
2023-01-20T13:55:40.991Z,16.50
2023-01-20T13:58:14.507Z,13.90
2023-01-20T14:00:41.628Z,19.60
2023-01-20T14:03:35.499Z,13.80
2023-01-20T14:06:02.410Z,16.90
2023-01-20T14:08:31.351Z,16.30
2023-01-20T14:11:17.186Z,13.80
2023-01-20T14:13:55.382Z,13.50
2023-01-20T14:16:34.821Z,16.60
2023-01-20T14:19:34.748Z,17.90
2023-01-20T14:22:03.395Z,18.30
2023-01-20T14:24:49.834Z,12.60
2023-01-20T14:27:16.738Z,15.00
2023-01-20T14:29:44.444Z,15.00
2023-01-20T14:32:20.035Z,17.10
2023-01-20T14:34:48.981Z,29.30
2023-01-20T14:37:28.015Z,20.70
2023-01-20T14:39:56.942Z,16.80
2023-01-20T14:42:24.032Z,19.00
2023-01-20T14:44:52.052Z,20.20
2023-01-20T14:47:19.998Z,23.70
2023-01-20T14:49:51.309Z,16.50
2023-01-20T14:52:29.514Z,17.80
2023-01-20T14:54:56.764Z,17.90
2023-01-20T14:57:27.740Z,32.50
2023-01-20T15:00:13.129Z,17.80
2023-01-20T15:02:41.354Z,21.80
2023-01-20T15:05:29.989Z,17.40
2023-01-20T15:08:14.307Z,20.40
2023-01-20T15:10:41.439Z,26.20
2023-01-20T15:13:25.180Z,19.20
2023-01-20T15:15:52.177Z,21.30
2023-01-20T15:18:23.192Z,22.60
2023-01-20T15:21:03.899Z,16.80
2023-01-20T15:23:39.538Z,24.40
2023-01-20T15:26:08.707Z,23.70
2023-01-20T15:28:38.333Z,19.40
2023-01-20T15:31:05.924Z,24.20
2023-01-20T15:33:32.930Z,20.40
2023-01-20T15:36:00.322Z,21.90
2023-01-20T15:38:32.046Z,21.20
2023-01-20T15:40:59.063Z,20.80
2023-01-20T15:43:25.974Z,22.30
2023-01-20T15:45:52.839Z,19.60
2023-01-20T15:48:21.245Z,20.10
2023-01-20T15:50:48.880Z,24.50
2023-01-20T15:53:15.843Z,19.10
2023-01-20T15:55:50.425Z,19.00
2023-01-20T15:58:27.461Z,22.30
2023-01-20T16:00:55.751Z,25.10
2023-01-20T16:03:23.778Z,18.60
2023-01-20T16:05:51.321Z,21.70
2023-01-20T16:08:19.647Z,26.60
2023-01-20T16:10:46.561Z,23.60
2023-01-20T16:13:13.575Z,21.90
2023-01-20T16:18:33.730Z,23.70
2023-01-20T16:21:00.644Z,24.80
2023-01-20T16:23:27.496Z,24.80
2023-01-20T16:25:54.874Z,27.40
2023-01-20T16:28:24.159Z,29.30
2023-01-20T16:30:51.868Z,25.40
2023-01-20T16:33:22.456Z,30.20
2023-01-20T16:35:56.063Z,26.20
2023-01-20T16:38:28.478Z,29.70
2023-01-20T16:41:04.108Z,31.20
2023-01-20T16:43:30.981Z,26.70
2023-01-20T16:45:57.906Z,28.00
2023-01-20T16:48:25.811Z,25.90
2023-01-20T16:50:52.950Z,33.20
2023-01-20T16:53:20.095Z,29.40
2023-01-20T16:55:47.732Z,33.60
2023-01-20T16:58:15.308Z,29.70
2023-01-20T17:00:45.814Z,33.80
2023-01-20T17:03:12.732Z,36.00
2023-01-20T17:05:39.578Z,33.00
2023-01-20T17:08:06.538Z,34.90
2023-01-20T17:10:33.667Z,27.30
2023-01-20T17:13:00.997Z,27.30
2023-01-20T17:15:28.091Z,28.00
2023-01-20T17:17:58.240Z,30.00
2023-01-20T17:20:31.140Z,29.70
2023-01-20T17:22:58.264Z,33.70
2023-01-20T17:25:25.967Z,34.50
2023-01-20T17:27:52.970Z,38.00
2023-01-20T17:30:19.930Z,33.40
2023-01-20T17:32:48.084Z,28.80
2023-01-20T17:35:19.146Z,31.60
2023-01-20T17:37:46.218Z,51.20
2023-01-20T17:40:13.543Z,34.80
2023-01-20T17:42:40.664Z,30.00
2023-01-20T17:45:08.097Z,28.60
2023-01-20T17:47:35.049Z,28.60
2023-01-20T17:50:02.309Z,31.80
2023-01-20T17:52:32.443Z,31.10
2023-01-20T17:54:59.483Z,31.50
2023-01-20T17:57:27.191Z,30.00
2023-01-20T17:59:54.174Z,31.60
2023-01-20T18:02:22.664Z,31.10
2023-01-20T18:04:49.579Z,30.30
2023-01-20T18:07:16.487Z,33.30
2023-01-20T18:09:43.673Z,28.30
2023-01-20T18:12:13.451Z,32.30
2023-01-20T18:14:40.330Z,32.80
2023-01-20T18:17:07.285Z,31.00
2023-01-20T18:19:34.455Z,33.10
2023-01-20T18:22:05.859Z,29.60
2023-01-20T18:24:33.129Z,31.90
2023-01-20T18:27:00.143Z,29.30
2023-01-20T18:29:28.923Z,28.90
2023-01-20T18:31:58.220Z,27.10
2023-01-20T18:34:25.280Z,29.50
2023-01-20T18:36:54.973Z,29.10
2023-01-20T18:39:25.446Z,27.30
2023-01-20T18:41:52.398Z,26.70
2023-01-20T18:44:19.682Z,26.90
2023-01-20T18:46:46.857Z,29.20
2023-01-20T18:49:15.168Z,32.20
2023-01-20T18:51:45.063Z,29.50
2023-01-20T18:54:14.293Z,28.10
2023-01-20T18:56:41.620Z,34.90
2023-01-20T18:59:10.965Z,31.90
2023-01-20T19:01:39.913Z,37.60
2023-01-20T20:34:37.281Z,50.40
2023-01-20T20:37:04.121Z,52.70
2023-01-20T20:39:32.491Z,54.20
2023-01-20T20:41:59.340Z,54.00
2023-01-20T20:44:26.920Z,53.70
2023-01-20T20:46:57.440Z,53.40
2023-01-20T20:49:24.408Z,53.50
2023-01-20T20:51:51.337Z,53.00
2023-01-20T20:54:21.680Z,50.10
2023-01-20T20:56:48.406Z,53.90
2023-01-20T20:59:15.184Z,54.30
2023-01-20T21:01:45.224Z,56.60
2023-01-20T21:04:12.163Z,47.50
2023-01-20T21:06:39.362Z,56.80
2023-01-20T21:09:06.204Z,59.40
2023-01-20T21:11:33.094Z,54.60
2023-01-20T21:13:59.898Z,52.70
2023-01-20T21:16:27.477Z,62.20
2023-01-20T21:18:58.579Z,48.60
2023-01-20T21:21:26.008Z,55.50
2023-01-20T21:23:54.765Z,50.90
2023-01-20T21:26:22.659Z,62.10
2023-01-20T21:29:03.183Z,52.40
2023-01-20T21:31:30.684Z,52.80
2023-01-20T21:34:00.123Z,50.50
2023-01-20T21:36:27.788Z,58.40
2023-01-20T21:38:54.608Z,53.00
2023-01-20T21:41:25.186Z,55.40
2023-01-20T21:44:10.883Z,55.90
2023-01-20T21:46:39.466Z,58.20
2023-01-20T21:52:13.240Z,60.40
2023-01-20T21:54:40.645Z,59.20
2023-01-20T21:59:40.339Z,57.10
2023-01-20T22:02:12.380Z,53.80
2023-01-20T22:04:39.613Z,57.50
2023-01-20T22:07:06.851Z,64.40
2023-01-20T22:09:33.693Z,59.70
2023-01-20T22:12:01.047Z,64.00
2023-01-20T22:14:27.995Z,55.90
2023-01-20T22:16:55.077Z,65.30
2023-01-20T22:19:22.101Z,60.00
2023-01-20T22:21:49.039Z,61.00
2023-01-20T22:24:19.575Z,61.10
2023-01-20T22:26:47.712Z,72.60
2023-01-20T22:29:15.131Z,59.10
2023-01-20T22:31:46.868Z,63.50
2023-01-20T22:34:13.708Z,53.30
2023-01-20T22:36:40.964Z,63.90
2023-01-20T22:39:08.935Z,58.70
2023-01-20T22:41:36.649Z,59.80
2023-01-20T22:44:03.336Z,62.60
2023-01-20T22:46:30.387Z,57.50
2023-01-20T22:48:57.521Z,64.10
2023-01-20T22:51:28.057Z,59.60
2023-01-20T22:53:55.661Z,64.30
2023-01-20T22:56:25.245Z,60.80
2023-01-20T22:58:52.194Z,64.60
2023-01-20T23:01:20.832Z,68.70
2023-01-20T23:03:48.027Z,63.10
2023-01-20T23:06:14.705Z,66.20
2023-01-20T23:08:42.134Z,60.90
2023-01-20T23:11:13.282Z,64.70
2023-01-20T23:13:40.521Z,69.40
2023-01-20T23:16:10.858Z,67.50
2023-01-20T23:18:38.797Z,70.20
2023-01-20T23:21:06.483Z,68.40
2023-01-20T23:23:34.379Z,67.90
2023-01-20T23:26:15.171Z,69.40
2023-01-20T23:28:43.027Z,71.00
2023-01-20T23:31:11.046Z,65.20
2023-01-20T23:33:40.485Z,69.00
2023-01-20T23:36:13.468Z,69.30
2023-01-20T23:38:40.568Z,76.20
2023-01-20T23:41:07.796Z,66.30
2023-01-20T23:43:35.323Z,77.40
2023-01-20T23:46:04.031Z,67.70
2023-01-20T23:48:30.936Z,70.60
2023-01-20T23:51:01.532Z,71.60
2023-01-20T23:53:30.385Z,72.00
2023-01-20T23:56:21.202Z,87.40
2023-01-20T23:58:49.210Z,81.00
